Time;durP1;ratioP1;P1;durP2;ratioP2;P2;SDS_P1;SDS_P2;PMS_P1;PMS_P2;Temp;Humidity;BMP_temperature;BMP_pressure;BME280_temperature;BME280_humidity;BME280_pressure;Samples;Min_cycle;Max_cycle;Signal;HPM_P1;HPM_P2
2023/10/20 00:02:08;;;;;;;12.03;11.20;;;15.60;58.20;;;;;;6128663;23;20406;-79
2023/10/20 00:04:34;;;;;;;11.30;10.70;;;15.60;57.30;;;;;;6131557;23;20330;-80
2023/10/20 00:06:59;;;;;;;11.93;11.13;;;15.60;56.90;;;;;;6131196;23;20150;-80
2023/10/20 00:09:25;;;;;;;10.73;10.10;;;15.60;56.60;;;;;;6133313;23;20224;-79
2023/10/20 00:11:51;;;;;;;10.93;10.33;;;15.60;56.40;;;;;;6138420;23;20178;-77
2023/10/20 00:14:17;;;;;;;11.87;11.20;;;15.60;55.80;;;;;;6136184;23;20146;-80
2023/10/20 00:16:43;;;;;;;10.37;9.77;;;15.60;56.30;;;;;;6133979;23;20238;-80
2023/10/20 00:19:08;;;;;;;10.87;10.10;;;15.70;56.40;;;;;;6135916;23;20418;-81
2023/10/20 00:21:35;;;;;;;11.50;10.90;;;15.60;55.80;;;;;;6145493;23;20251;-79
2023/10/20 00:24:01;;;;;;;11.30;10.60;;;15.70;56.00;;;;;;6135975;23;20199;-80
2023/10/20 00:26:26;;;;;;;11.20;10.50;;;15.60;56.00;;;;;;6162125;23;20373;-80
2023/10/20 00:28:52;;;;;;;10.53;9.87;;;15.60;55.90;;;;;;6162864;23;20216;-79
2023/10/20 00:31:18;;;;;;;10.70;10.20;;;15.60;56.30;;;;;;6135203;23;20209;-82
2023/10/20 00:33:45;;;;;;;11.40;10.80;;;15.60;56.40;;;;;;6135137;23;20180;-80
2023/10/20 00:36:11;;;;;;;10.67;9.90;;;15.60;56.30;;;;;;6136088;23;20392;-79
2023/10/20 00:38:37;;;;;;;11.93;11.07;;;15.60;56.80;;;;;;6134758;23;20431;-78
2023/10/20 00:41:03;;;;;;;10.97;10.27;;;15.60;56.60;;;;;;6159942;23;20188;-80
2023/10/20 00:43:35;;;;;;;11.00;10.30;;;15.60;56.40;;;;;;6135527;23;20404;-81
2023/10/20 00:46:04;;;;;;;11.90;11.10;;;15.50;56.20;;;;;;6138096;23;20153;-79
2023/10/20 00:48:31;;;;;;;11.33;10.63;;;15.50;57.10;;;;;;6137512;23;20453;-78
2023/10/20 00:50:57;;;;;;;10.57;9.97;;;15.50;57.40;;;;;;6163986;23;20400;-79
2023/10/20 00:53:25;;;;;;;10.47;9.87;;;15.50;57.30;;;;;;6137643;23;20385;-79
2023/10/20 00:55:51;;;;;;;12.07;11.37;;;15.50;57.20;;;;;;6163993;23;20389;-81
2023/10/20 00:58:16;;;;;;;11.80;10.90;;;15.50;57.10;;;;;;6163172;23;20499;-81
2023/10/20 01:00:42;;;;;;;10.97;10.30;;;15.50;57.20;;;;;;6137695;23;20150;-79
2023/10/20 01:03:10;;;;;;;11.67;10.87;;;15.50;56.90;;;;;;6164129;23;20200;-79
2023/10/20 01:05:36;;;;;;;11.97;11.30;;;15.60;57.00;;;;;;6135978;23;20408;-79
2023/10/20 01:08:02;;;;;;;12.10;11.00;;;15.60;56.40;;;;;;6136031;23;20395;-80
2023/10/20 01:10:28;;;;;;;11.20;10.60;;;15.60;56.30;;;;;;6136057;23;20385;-79
2023/10/20 01:12:54;;;;;;;10.50;9.90;;;15.60;56.30;;;;;;6136360;23;20582;-79
2023/10/20 01:15:19;;;;;;;11.47;10.80;;;15.60;56.30;;;;;;6162990;23;20404;-79
2023/10/20 01:17:45;;;;;;;10.53;9.83;;;15.60;56.30;;;;;;6163269;23;20240;-81
2023/10/20 01:20:11;;;;;;;10.87;10.27;;;15.60;56.30;;;;;;6137209;23;20153;-80
2023/10/20 01:22:37;;;;;;;10.83;10.20;;;15.60;56.30;;;;;;6132812;23;20190;-81
2023/10/20 01:25:02;;;;;;;10.27;9.77;;;15.50;56.30;;;;;;6131628;23;20598;-80
2023/10/20 01:27:28;;;;;;;11.30;10.70;;;15.60;56.70;;;;;;6132254;23;20254;-81
2023/10/20 01:29:54;;;;;;;11.63;10.90;;;15.60;56.60;;;;;;6133529;23;20151;-79
2023/10/20 01:32:20;;;;;;;11.10;10.60;;;15.50;56.50;;;;;;6135221;23;20398;-78
2023/10/20 01:34:45;;;;;;;12.37;11.50;;;15.60;56.70;;;;;;6133995;23;20253;-78
2023/10/20 01:37:11;;;;;;;11.77;11.13;;;15.60;57.00;;;;;;6130583;23;20472;-79
2023/10/20 01:39:38;;;;;;;11.80;11.20;;;15.60;56.60;;;;;;6128795;23;20158;-80
2023/10/20 01:42:04;;;;;;;12.53;11.70;;;15.50;57.20;;;;;;6130485;23;20868;-78
2023/10/20 01:44:29;;;;;;;12.50;11.90;;;15.50;57.50;;;;;;6130336;23;20389;-79
2023/10/20 01:46:55;;;;;;;12.00;11.30;;;15.60;57.70;;;;;;6128493;23;20166;-80
2023/10/20 01:49:20;;;;;;;12.00;11.30;;;15.50;57.60;;;;;;6130477;23;20185;-77
2023/10/20 01:51:46;;;;;;;11.50;10.90;;;15.50;57.70;;;;;;6130695;23;20174;-78
2023/10/20 01:54:12;;;;;;;11.87;11.17;;;15.50;57.70;;;;;;6130661;23;20153;-78
2023/10/20 01:56:37;;;;;;;12.13;11.40;;;15.50;57.70;;;;;;6133631;23;20442;-80
2023/10/20 01:59:05;;;;;;;11.33;10.83;;;15.50;57.60;;;;;;6135613;23;20213;-80
2023/10/20 02:01:31;;;;;;;10.67;10.07;;;15.40;57.80;;;;;;6136066;23;20177;-81
2023/10/20 02:03:57;;;;;;;10.97;10.47;;;15.50;58.20;;;;;;6134724;23;20382;-80
2023/10/20 02:06:22;;;;;;;11.13;10.53;;;15.50;58.20;;;;;;6133486;23;20154;-80
2023/10/20 02:08:48;;;;;;;10.73;10.23;;;15.50;58.60;;;;;;6134319;23;20168;-80
2023/10/20 02:11:14;;;;;;;11.47;10.57;;;15.50;58.40;;;;;;6129083;23;20188;-79
2023/10/20 02:13:42;;;;;;;12.70;11.80;;;15.40;58.20;;;;;;6131063;23;20158;-81
2023/10/20 02:16:08;;;;;;;12.17;11.57;;;15.30;58.70;;;;;;6131411;23;20401;-81
2023/10/20 02:18:34;;;;;;;12.77;11.93;;;15.40;59.40;;;;;;6132370;23;20421;-80
2023/10/20 02:21:04;;;;;;;12.67;11.97;;;15.30;59.60;;;;;;6136719;23;20374;-81
2023/10/20 02:23:34;;;;;;;10.97;10.27;;;15.40;59.10;;;;;;6137416;23;20523;-80
2023/10/20 02:26:01;;;;;;;9.73;9.30;;;15.40;58.70;;;;;;6136531;23;20386;-81
2023/10/20 02:28:27;;;;;;;11.33;10.73;;;15.40;58.10;;;;;;6164844;23;20377;-79
2023/10/20 02:30:55;;;;;;;11.17;10.50;;;15.50;58.10;;;;;;6142479;23;20410;-78
2023/10/20 02:33:20;;;;;;;10.47;9.87;;;15.50;58.00;;;;;;6143367;23;20389;-81
2023/10/20 02:35:46;;;;;;;11.80;10.60;;;15.50;57.60;;;;;;6163076;23;20844;-80
2023/10/20 02:38:11;;;;;;;10.40;9.80;;;15.50;57.40;;;;;;6162661;23;20173;-81
2023/10/20 02:40:37;;;;;;;10.50;10.00;;;15.50;58.00;;;;;;6162553;23;20153;-81
2023/10/20 02:43:03;;;;;;;10.50;10.00;;;15.50;58.20;;;;;;6132393;23;20174;-78
2023/10/20 02:45:28;;;;;;;11.60;11.00;;;15.50;58.60;;;;;;6156727;23;20491;-78
2023/10/20 02:47:54;;;;;;;11.00;10.40;;;15.40;58.10;;;;;;6155621;23;20597;-78
2023/10/20 02:50:20;;;;;;;10.97;10.40;;;15.40;58.50;;;;;;6129416;23;20162;-80
2023/10/20 02:52:45;;;;;;;11.07;10.43;;;15.40;59.00;;;;;;6131197;23;20578;-80
2023/10/20 02:55:11;;;;;;;10.47;9.97;;;15.40;58.80;;;;;;6158231;23;20385;-80
2023/10/20 02:57:37;;;;;;;10.80;10.20;;;15.40;59.30;;;;;;6136139;23;20528;-80
2023/10/20 03:00:04;;;;;;;10.97;10.30;;;15.40;59.40;;;;;;6163355;23;20201;-80
2023/10/20 03:02:30;;;;;;;9.80;9.20;;;15.40;58.80;;;;;;6136289;23;20180;-79
2023/10/20 03:04:56;;;;;;;9.93;9.53;;;15.30;58.70;;;;;;6135784;23;20395;-78
2023/10/20 03:07:24;;;;;;;9.83;9.43;;;15.30;59.80;;;;;;6160802;23;20758;-80
2023/10/20 03:09:51;;;;;;;9.87;9.27;;;15.30;60.10;;;;;;6161357;23;20154;-79
2023/10/20 03:12:17;;;;;;;10.67;10.07;;;15.40;60.00;;;;;;6162702;23;20439;-79
2023/10/20 03:14:44;;;;;;;11.13;10.40;;;15.30;59.70;;;;;;6135775;23;20384;-79
2023/10/20 03:17:11;;;;;;;9.43;9.03;;;15.30;60.10;;;;;;6159975;23;20863;-79
2023/10/20 03:19:37;;;;;;;10.23;9.63;;;15.30;60.30;;;;;;6160714;23;20370;-77
2023/10/20 03:22:02;;;;;;;9.20;8.70;;;15.40;60.10;;;;;;6129737;23;20429;-79
2023/10/20 03:24:29;;;;;;;10.23;9.63;;;15.40;59.80;;;;;;6130405;23;20450;-78
2023/10/20 03:26:54;;;;;;;10.80;10.20;;;15.40;59.40;;;;;;6131095;23;20491;-79
2023/10/20 03:29:20;;;;;;;10.00;9.40;;;15.40;59.60;;;;;;6130654;23;20382;-79
2023/10/20 03:31:46;;;;;;;10.47;9.93;;;15.40;59.50;;;;;;6133502;23;20453;-80
2023/10/20 03:34:11;;;;;;;10.23;9.60;;;15.40;59.60;;;;;;6136645;23;20224;-79
2023/10/20 03:36:37;;;;;;;9.73;9.13;;;15.40;59.90;;;;;;6130156;23;20165;-79
2023/10/20 03:39:14;;;;;;;10.67;10.07;;;15.40;59.90;;;;;;6134263;23;20216;-78
2023/10/20 03:41:40;;;;;;;10.73;10.00;;;15.40;59.80;;;;;;6131201;23;20170;-79
2023/10/20 03:44:07;;;;;;;10.23;9.63;;;15.40;59.90;;;;;;6130782;23;20425;-79
2023/10/20 03:46:42;;;;;;;10.97;10.30;;;15.40;60.20;;;;;;6130024;23;20402;-77
2023/10/20 03:49:09;;;;;;;10.47;9.97;;;15.40;60.50;;;;;;6130403;23;20825;-77
2023/10/20 03:51:37;;;;;;;10.33;9.73;;;15.40;60.00;;;;;;6153767;23;20416;-78
2023/10/20 03:54:05;;;;;;;10.97;10.37;;;15.40;60.20;;;;;;6129181;23;20158;-79
2023/10/20 03:56:34;;;;;;;11.53;10.70;;;15.40;60.00;;;;;;6128871;23;20954;-80
2023/10/20 03:59:01;;;;;;;9.93;9.43;;;15.40;60.20;;;;;;6130723;23;20919;-79
2023/10/20 04:01:27;;;;;;;10.07;9.47;;;15.40;59.90;;;;;;6130665;23;20476;-79
2023/10/20 04:03:52;;;;;;;10.80;10.20;;;15.30;60.00;;;;;;6131577;23;20374;-79
2023/10/20 04:06:19;;;;;;;10.27;9.67;;;15.30;60.10;;;;;;6131522;23;20401;-80
2023/10/20 04:08:45;;;;;;;9.60;9.00;;;15.30;60.50;;;;;;6130347;23;20237;-79
2023/10/20 04:11:12;;;;;;;11.43;10.73;;;15.30;60.30;;;;;;6129460;23;20411;-79
2023/10/20 04:13:38;;;;;;;11.90;11.20;;;15.30;59.80;;;;;;6130994;23;20433;-78
2023/10/20 04:16:13;;;;;;;12.00;11.30;;;15.30;59.30;;;;;;6129856;23;20393;-78
2023/10/20 04:18:40;;;;;;;12.23;11.43;;;15.30;59.40;;;;;;6131422;23;20178;-78
2023/10/20 04:21:06;;;;;;;13.47;12.67;;;15.30;59.50;;;;;;6135900;23;20440;-80
2023/10/20 04:23:31;;;;;;;11.60;11.00;;;15.30;59.30;;;;;;6138233;23;20464;-79
2023/10/20 04:25:57;;;;;;;11.83;11.13;;;15.30;59.00;;;;;;6165206;23;20157;-80
2023/10/20 04:28:42;;;;;;;15.83;14.63;;;15.30;59.10;;;;;;6167145;23;20592;-80
2023/10/20 04:50:47;;;;;;;10.83;10.33;;;15.40;56.90;;;;;;6159436;23;20385;-79
2023/10/20 04:58:34;;;;;;;10.43;9.53;;;15.30;56.10;;;;;;6171004;23;20420;-79
2023/10/20 05:01:07;;;;;;;11.33;10.37;;;15.30;56.10;;;;;;6135759;23;20373;-79
2023/10/20 05:03:45;;;;;;;10.53;10.03;;;15.30;56.10;;;;;;6162600;23;20581;-80
2023/10/20 05:08:57;;;;;;;11.03;10.40;;;15.20;55.50;;;;;;6163664;23;20360;-80
2023/10/20 05:11:24;;;;;;;10.47;9.90;;;15.30;56.10;;;;;;6164896;23;20487;-79
2023/10/20 05:13:49;;;;;;;10.70;10.10;;;15.20;56.00;;;;;;6135926;23;20157;-78
2023/10/20 05:16:15;;;;;;;10.70;10.07;;;15.30;55.60;;;;;;6160865;23;20387;-78
2023/10/20 05:18:42;;;;;;;10.67;10.07;;;15.20;55.50;;;;;;6159903;23;20184;-78
2023/10/20 05:21:11;;;;;;;11.50;10.80;;;15.20;55.40;;;;;;6157254;23;20862;-78
2023/10/20 05:23:37;;;;;;;11.03;10.43;;;15.30;55.60;;;;;;6131058;23;20432;-79
2023/10/20 05:26:03;;;;;;;10.60;9.97;;;15.20;56.00;;;;;;6158818;23;20406;-80
2023/10/20 05:28:30;;;;;;;11.53;10.90;;;15.30;56.10;;;;;;6158779;23;20395;-79
2023/10/20 05:30:57;;;;;;;10.43;9.93;;;15.20;55.50;;;;;;6159266;23;20157;-79
2023/10/20 05:33:25;;;;;;;10.27;9.70;;;15.20;55.30;;;;;;6158949;23;20381;-80
2023/10/20 05:35:51;;;;;;;10.07;9.50;;;15.20;55.30;;;;;;6133493;23;20895;-80
2023/10/20 05:38:16;;;;;;;10.03;9.40;;;15.20;55.40;;;;;;6157408;23;20429;-78
2023/10/20 05:40:42;;;;;;;11.13;10.43;;;15.20;55.30;;;;;;6156698;23;20377;-80
2023/10/20 05:43:08;;;;;;;10.20;9.67;;;15.20;55.40;;;;;;6159041;23;20268;-79
2023/10/20 05:45:38;;;;;;;10.47;9.77;;;15.20;56.00;;;;;;6157244;23;20486;-78
2023/10/20 05:48:09;;;;;;;10.60;9.80;;;15.20;55.40;;;;;;6132461;23;20170;-77
2023/10/20 05:50:38;;;;;;;10.27;9.60;;;15.30;55.50;;;;;;6134473;23;20369;-78
2023/10/20 05:53:04;;;;;;;11.40;10.60;;;15.30;56.00;;;;;;6159350;23;20401;-79
2023/10/20 05:55:32;;;;;;;10.30;9.80;;;15.30;56.10;;;;;;6159722;23;20389;-80
2023/10/20 05:57:58;;;;;;;10.80;10.20;;;15.40;56.20;;;;;;6159743;23;20417;-81
2023/10/20 06:00:23;;;;;;;10.57;9.87;;;15.40;55.90;;;;;;6160446;23;20420;-81
2023/10/20 06:02:49;;;;;;;10.90;10.10;;;15.40;55.00;;;;;;6179086;23;20215;-60
2023/10/20 06:05:15;;;;;;;11.23;10.53;;;15.40;54.20;;;;;;6157807;23;20161;-60
2023/10/20 06:07:41;;;;;;;11.17;10.47;;;15.40;53.70;;;;;;6158276;23;20391;-60
2023/10/20 06:10:16;;;;;;;11.00;10.30;;;15.50;53.70;;;;;;6157684;23;20157;-59
2023/10/20 06:12:42;;;;;;;12.50;11.50;;;15.40;53.60;;;;;;6158337;23;20470;-59
2023/10/20 06:15:09;;;;;;;12.03;11.33;;;15.40;53.70;;;;;;6158178;23;20384;-59
2023/10/20 06:17:35;;;;;;;12.60;11.80;;;15.40;53.40;;;;;;6157842;23;20432;-59
2023/10/20 06:20:09;;;;;;;12.40;11.60;;;15.40;53.50;;;;;;6158062;23;20444;-59
2023/10/20 06:22:34;;;;;;;12.13;11.43;;;15.40;53.30;;;;;;6158214;23;20391;-59
2023/10/20 06:25:00;;;;;;;12.90;11.80;;;15.40;52.60;;;;;;6157914;23;20380;-60
2023/10/20 06:27:26;;;;;;;12.10;11.40;;;15.40;52.50;;;;;;6157690;23;20161;-58
2023/10/20 06:29:58;;;;;;;14.10;13.00;;;15.40;52.00;;;;;;6158216;23;20168;-59
2023/10/20 06:32:25;;;;;;;14.50;13.50;;;15.40;51.20;;;;;;6158024;23;20379;-59
2023/10/20 06:35:00;;;;;;;13.30;12.40;;;15.30;50.50;;;;;;6158009;23;20442;-59
2023/10/20 06:37:36;;;;;;;13.97;13.17;;;15.30;50.20;;;;;;6157798;23;20415;-58
2023/10/20 06:40:05;;;;;;;13.60;12.80;;;15.30;50.70;;;;;;6158063;23;20706;-58
2023/10/20 06:42:31;;;;;;;14.40;13.50;;;15.30;50.20;;;;;;6158045;23;20391;-59
2023/10/20 06:44:57;;;;;;;15.00;14.00;;;15.30;50.20;;;;;;6157997;23;20407;-59
2023/10/20 06:47:22;;;;;;;15.40;14.50;;;15.30;49.90;;;;;;6157824;23;20180;-59
2023/10/20 06:49:48;;;;;;;14.13;13.33;;;15.30;50.00;;;;;;6157945;23;20231;-59
2023/10/20 06:52:19;;;;;;;14.93;13.93;;;15.30;50.10;;;;;;6157955;23;20157;-59
2023/10/20 06:54:46;;;;;;;15.90;14.90;;;15.30;50.50;;;;;;6157718;23;20216;-59
2023/10/20 06:57:13;;;;;;;14.87;13.97;;;15.20;50.70;;;;;;6157541;23;20862;-59
2023/10/20 06:59:39;;;;;;;15.67;14.57;;;15.30;51.20;;;;;;6157812;23;20446;-59
2023/10/20 07:02:05;;;;;;;14.50;13.50;;;15.30;51.10;;;;;;6152801;23;20409;-58
2023/10/20 07:04:31;;;;;;;16.00;14.73;;;15.30;50.40;;;;;;6154550;23;20587;-58
2023/10/20 07:06:57;;;;;;;15.13;14.13;;;15.30;49.80;;;;;;6153247;23;20437;-58
2023/10/20 07:09:23;;;;;;;15.87;14.77;;;15.30;49.20;;;;;;6152651;23;20858;-58
2023/10/20 07:11:49;;;;;;;15.97;14.87;;;15.30;49.30;;;;;;6153031;23;20381;-58
2023/10/20 07:14:15;;;;;;;16.50;15.50;;;15.30;49.50;;;;;;6153296;23;20532;-58
2023/10/20 07:16:44;;;;;;;16.57;15.37;;;15.30;49.40;;;;;;6152940;23;20405;-58
2023/10/20 07:19:11;;;;;;;14.90;14.10;;;15.30;49.30;;;;;;6128290;23;20464;-60
2023/10/20 07:21:36;;;;;;;15.70;14.80;;;15.30;48.60;;;;;;6152870;23;20838;-60
2023/10/20 07:24:03;;;;;;;17.33;16.20;;;15.30;48.70;;;;;;6152905;23;20164;-60
2023/10/20 07:26:29;;;;;;;16.33;15.33;;;15.30;48.80;;;;;;6152745;23;20204;-60
2023/10/20 07:28:55;;;;;;;16.00;15.00;;;15.30;48.30;;;;;;6152819;23;20717;-60
2023/10/20 07:31:26;;;;;;;15.37;14.37;;;15.30;47.50;;;;;;6152871;23;20540;-60
2023/10/20 07:33:51;;;;;;;16.20;15.30;;;15.40;47.40;;;;;;6152919;23;20389;-60
2023/10/20 07:36:17;;;;;;;17.03;15.77;;;15.40;48.10;;;;;;6153908;23;20723;-61
2023/10/20 07:38:43;;;;;;;16.20;15.30;;;15.40;48.70;;;;;;6155993;23;20611;-60
2023/10/20 07:41:11;;;;;;;15.90;14.70;;;15.30;48.20;;;;;;6153514;23;20153;-61
2023/10/20 07:43:41;;;;;;;16.13;15.13;;;15.30;49.60;;;;;;6154024;23;20533;-60
2023/10/20 07:46:13;;;;;;;16.23;15.10;;;15.30;50.80;;;;;;6152965;23;20384;-61
2023/10/20 07:48:39;;;;;;;15.20;14.20;;;15.30;50.10;;;;;;6154172;23;20396;-60
2023/10/20 07:51:05;;;;;;;15.10;14.20;;;15.40;50.00;;;;;;6155804;23;20712;-61
2023/10/20 07:53:31;;;;;;;15.10;14.10;;;15.30;50.50;;;;;;6156612;23;20454;-61
2023/10/20 07:55:57;;;;;;;16.17;14.80;;;15.40;50.80;;;;;;6156549;23;20586;-60
2023/10/20 07:58:23;;;;;;;15.63;14.73;;;15.40;50.80;;;;;;6157521;23;20420;-60
2023/10/20 08:00:50;;;;;;;16.37;15.33;;;15.40;51.30;;;;;;6158514;23;20523;-61
2023/10/20 08:03:16;;;;;;;14.63;13.73;;;15.40;51.80;;;;;;6158464;23;20479;-60
2023/10/20 08:05:43;;;;;;;14.87;13.70;;;15.40;51.40;;;;;;6157895;23;20464;-61
2023/10/20 08:08:09;;;;;;;15.40;14.40;;;15.40;50.90;;;;;;6161097;23;20413;-60
2023/10/20 08:10:37;;;;;;;14.70;13.70;;;15.50;51.30;;;;;;6160450;23;20377;-60
2023/10/20 08:13:03;;;;;;;15.23;14.23;;;15.50;50.80;;;;;;6160153;23;20381;-60
2023/10/20 08:15:29;;;;;;;14.40;13.60;;;15.50;49.90;;;;;;6160001;23;20758;-60
2023/10/20 08:17:56;;;;;;;14.07;13.17;;;15.60;49.60;;;;;;6158649;23;20425;-58
2023/10/20 08:20:22;;;;;;;14.63;13.63;;;15.60;49.30;;;;;;6161968;23;20845;-57
2023/10/20 08:22:48;;;;;;;13.97;13.17;;;15.50;49.50;;;;;;6161298;23;20380;-58
2023/10/20 08:25:15;;;;;;;13.70;12.90;;;15.60;49.90;;;;;;6159047;23;20377;-58
2023/10/20 08:27:41;;;;;;;14.10;13.30;;;15.60;49.90;;;;;;6154830;23;20384;-58
2023/10/20 08:30:08;;;;;;;14.30;13.40;;;15.60;50.00;;;;;;6157836;23;20411;-58
2023/10/20 08:32:34;;;;;;;13.97;13.17;;;15.60;49.90;;;;;;6157211;23;20789;-58
2023/10/20 08:35:00;;;;;;;14.83;13.87;;;15.60;50.10;;;;;;6157425;23;20463;-58
2023/10/20 08:37:26;;;;;;;14.70;13.80;;;15.70;50.80;;;;;;6157808;23;20377;-58
2023/10/20 08:39:54;;;;;;;15.00;13.90;;;15.60;51.10;;;;;;6157663;23;20574;-58
2023/10/20 08:42:21;;;;;;;14.43;13.57;;;15.60;51.60;;;;;;6155916;23;20424;-58
2023/10/20 08:44:48;;;;;;;15.50;14.37;;;15.70;50.40;;;;;;6155581;23;20384;-58
2023/10/20 08:47:15;;;;;;;16.27;15.07;;;15.70;50.10;;;;;;6155788;23;20471;-61
2023/10/20 08:49:45;;;;;;;16.20;15.10;;;15.70;50.70;;;;;;6157829;23;20455;-59
2023/10/20 08:52:12;;;;;;;16.27;15.33;;;15.70;49.70;;;;;;6156029;23;20385;-57
2023/10/20 08:54:39;;;;;;;16.47;15.47;;;15.60;49.30;;;;;;6156132;23;20480;-59
2023/10/20 08:57:06;;;;;;;19.30;17.90;;;15.60;46.50;;;;;;6158498;23;20387;-58
2023/10/20 08:59:32;;;;;;;17.40;16.30;;;15.60;46.50;;;;;;6160326;23;20420;-58
2023/10/20 09:01:59;;;;;;;16.90;15.67;;;15.60;46.50;;;;;;6157650;23;20408;-62
2023/10/20 09:04:29;;;;;;;16.77;15.70;;;15.60;44.50;;;;;;6159610;23;20456;-58
2023/10/20 09:06:56;;;;;;;17.83;16.73;;;15.60;44.90;;;;;;6159954;23;20384;-59
2023/10/20 09:09:22;;;;;;;17.20;15.87;;;15.60;43.40;;;;;;6157776;23;20841;-58
2023/10/20 09:11:48;;;;;;;16.67;15.57;;;15.60;42.60;;;;;;6157663;23;20496;-58
2023/10/20 09:14:15;;;;;;;16.37;15.07;;;15.60;43.60;;;;;;6159805;23;20388;-58
2023/10/20 09:16:45;;;;;;;17.27;15.60;;;15.70;44.10;;;;;;6157465;23;20455;-58
2023/10/20 09:19:14;;;;;;;14.93;14.00;;;15.70;44.40;;;;;;6159291;23;20428;-59
2023/10/20 09:21:40;;;;;;;16.30;14.90;;;15.70;45.40;;;;;;6158929;23;20864;-58
2023/10/20 09:24:07;;;;;;;16.43;15.23;;;15.70;43.90;;;;;;6157636;23;20381;-59
2023/10/20 09:26:39;;;;;;;15.20;14.13;;;15.80;44.70;;;;;;6156904;23;20389;-58
2023/10/20 09:29:07;;;;;;;16.93;15.60;;;15.90;46.80;;;;;;6156997;23;20381;-59
2023/10/20 09:31:34;;;;;;;15.97;14.87;;;15.90;47.10;;;;;;6157558;23;20412;-59
2023/10/20 09:34:01;;;;;;;14.50;13.60;;;15.90;46.20;;;;;;6155858;23;20389;-58
2023/10/20 09:36:31;;;;;;;16.03;15.00;;;15.90;44.60;;;;;;6157895;23;20386;-58
2023/10/20 09:38:59;;;;;;;15.33;14.37;;;15.80;44.20;;;;;;6157328;23;20423;-59
2023/10/20 09:41:27;;;;;;;14.97;13.97;;;15.80;44.10;;;;;;6154521;23;20862;-60
2023/10/20 09:44:00;;;;;;;14.77;13.67;;;15.80;44.30;;;;;;6156815;23;20753;-59
2023/10/20 09:46:40;;;;;;;15.70;14.70;;;15.90;44.80;;;;;;6155138;23;20440;-61
2023/10/20 09:49:20;;;;;;;15.30;14.37;;;15.90;45.80;;;;;;6154926;23;20691;-60
2023/10/20 09:51:47;;;;;;;14.00;13.10;;;16.00;45.70;;;;;;6154733;23;20377;-61
2023/10/20 09:54:15;;;;;;;13.60;12.73;;;15.90;44.20;;;;;;6155226;23;20404;-61
2023/10/20 09:56:43;;;;;;;12.80;11.80;;;16.00;44.60;;;;;;6156526;23;20867;-61
2023/10/20 09:59:09;;;;;;;13.40;12.60;;;16.00;44.60;;;;;;6154790;23;20503;-61
2023/10/20 10:01:37;;;;;;;12.00;11.10;;;16.10;44.80;;;;;;6162219;23;20396;-62
2023/10/20 10:04:04;;;;;;;13.83;13.03;;;16.10;44.10;;;;;;6161212;23;20228;-61
2023/10/20 10:06:37;;;;;;;14.53;13.57;;;16.10;44.20;;;;;;6160615;23;20518;-61
2023/10/20 10:09:04;;;;;;;13.60;12.40;;;16.20;44.30;;;;;;6185672;23;20372;-61
2023/10/20 10:11:34;;;;;;;12.53;11.63;;;16.20;45.20;;;;;;6160394;23;20447;-61
2023/10/20 10:14:02;;;;;;;12.67;11.73;;;16.30;45.80;;;;;;6160044;23;20398;-61
2023/10/20 10:16:30;;;;;;;11.87;11.10;;;16.30;45.50;;;;;;6186407;23;20463;-60
2023/10/20 10:19:06;;;;;;;11.87;11.00;;;16.30;47.20;;;;;;6159813;23;20434;-61
2023/10/20 10:21:37;;;;;;;12.10;11.03;;;16.40;47.80;;;;;;6159922;23;20452;-61
2023/10/20 10:24:12;;;;;;;12.30;11.57;;;16.40;48.60;;;;;;6159892;23;20372;-61
2023/10/20 10:26:51;;;;;;;11.93;11.23;;;16.40;49.40;;;;;;6186518;23;20859;-61
2023/10/20 10:30:13;;;;;;;11.63;10.73;;;16.50;50.10;;;;;;6159654;23;20396;-61
2023/10/20 10:32:48;;;;;;;11.83;11.07;;;16.50;51.00;;;;;;6185086;23;20388;-61
2023/10/20 10:35:17;;;;;;;12.23;11.53;;;16.50;50.90;;;;;;6185177;23;20384;-61
2023/10/20 10:37:44;;;;;;;11.00;10.30;;;16.50;51.40;;;;;;6184744;23;20511;-62
2023/10/20 10:40:12;;;;;;;11.67;11.00;;;16.60;51.90;;;;;;6159460;23;20380;-61
2023/10/20 10:42:57;;;;;;;9.90;9.40;;;16.60;52.40;;;;;;6160315;23;20391;-62
2023/10/20 10:45:29;;;;;;;10.17;9.53;;;16.60;52.40;;;;;;6159918;23;20411;-61
2023/10/20 10:48:09;;;;;;;11.13;10.53;;;16.60;53.10;;;;;;6185703;23;20387;-61
2023/10/20 10:50:40;;;;;;;10.10;9.50;;;16.60;53.20;;;;;;6183768;23;20404;-61
2023/10/20 10:53:07;;;;;;;8.43;8.00;;;16.60;51.30;;;;;;6185004;23;20848;-62
2023/10/20 10:55:36;;;;;;;8.77;8.37;;;16.70;49.00;;;;;;6181816;23;20514;-61
2023/10/20 10:58:07;;;;;;;9.80;9.10;;;16.70;49.60;;;;;;6159200;23;20438;-60
2023/10/20 11:00:34;;;;;;;8.50;8.00;;;16.80;49.40;;;;;;6185821;23;20745;-61
2023/10/20 11:03:04;;;;;;;8.27;7.87;;;16.80;48.10;;;;;;6186037;23;20395;-61
2023/10/20 11:05:33;;;;;;;7.60;7.30;;;16.90;46.90;;;;;;6158316;23;20756;-61
2023/10/20 11:08:03;;;;;;;7.53;7.23;;;16.90;44.50;;;;;;6184476;23;20724;-61
2023/10/20 11:10:33;;;;;;;7.00;6.70;;;17.10;42.30;;;;;;6160424;23;20479;-60
2023/10/20 11:12:59;;;;;;;6.03;5.83;;;17.20;40.90;;;;;;6186397;23;20376;-61
2023/10/20 11:15:29;;;;;;;7.20;6.80;;;17.30;37.90;;;;;;6160768;23;20387;-61
2023/10/20 11:18:00;;;;;;;6.30;6.10;;;17.40;37.50;;;;;;6184261;23;20444;-61
2023/10/20 11:20:27;;;;;;;6.17;5.97;;;17.40;37.20;;;;;;6157939;23;20388;-62
2023/10/20 11:22:57;;;;;;;5.23;5.13;;;17.40;35.40;;;;;;6158304;23;20442;-60
2023/10/20 11:25:24;;;;;;;5.80;5.70;;;17.40;34.70;;;;;;6186584;23;20369;-61
2023/10/20 11:27:59;;;;;;;5.73;5.57;;;17.40;34.00;;;;;;6183738;23;20419;-61
2023/10/20 11:30:26;;;;;;;5.70;5.50;;;17.40;34.40;;;;;;6159640;23;20391;-59
2023/10/20 11:32:55;;;;;;;5.77;5.57;;;17.40;35.40;;;;;;6160087;23;20384;-59
2023/10/20 11:35:26;;;;;;;6.13;5.83;;;17.30;34.50;;;;;;6184735;23;20380;-59
2023/10/20 11:37:53;;;;;;;6.17;5.97;;;17.30;34.50;;;;;;6159011;23;20439;-59
2023/10/20 11:40:20;;;;;;;5.03;4.93;;;17.30;34.00;;;;;;6158865;23;20411;-59
2023/10/20 11:42:48;;;;;;;5.40;5.30;;;17.30;34.60;;;;;;6158749;23;20413;-59
2023/10/20 11:45:14;;;;;;;4.90;4.67;;;17.30;34.50;;;;;;6159300;23;20384;-58
2023/10/20 11:47:40;;;;;;;5.40;5.20;;;17.40;34.60;;;;;;6158724;23;20384;-62
2023/10/20 11:50:10;;;;;;;5.80;5.27;;;17.40;34.90;;;;;;6185276;23;20776;-62
2023/10/20 11:52:41;;;;;;;5.50;5.40;;;17.40;34.90;;;;;;6160582;23;20414;-62
2023/10/20 11:55:11;;;;;;;5.93;5.73;;;17.40;34.70;;;;;;6185982;23;20376;-62
2023/10/20 11:57:38;;;;;;;5.77;5.67;;;17.40;34.40;;;;;;6186364;23;20750;-61
2023/10/20 12:00:13;;;;;;;5.70;5.50;;;17.40;34.10;;;;;;6186088;23;20463;-61
2023/10/20 12:02:40;;;;;;;5.33;5.13;;;17.40;34.30;;;;;;6094567;23;1433300;-62
2023/10/20 12:05:07;;;;;;;5.83;5.73;;;17.40;34.80;;;;;;6157374;23;20272;-61
2023/10/20 12:07:33;;;;;;;6.20;6.10;;;17.40;34.80;;;;;;6157403;23;20384;-62
2023/10/20 12:09:59;;;;;;;6.33;6.13;;;17.40;34.80;;;;;;6156416;23;20392;-62
2023/10/20 12:12:25;;;;;;;6.03;5.83;;;17.40;35.10;;;;;;6157755;23;20377;-61
2023/10/20 12:14:51;;;;;;;5.57;5.37;;;17.40;34.50;;;;;;6158374;23;20377;-61
2023/10/20 12:17:17;;;;;;;5.47;5.27;;;17.40;34.70;;;;;;6156065;23;20411;-62
2023/10/20 12:19:44;;;;;;;5.87;5.57;;;17.40;34.90;;;;;;6157794;23;20369;-62
2023/10/20 12:22:09;;;;;;;5.70;5.50;;;17.40;35.20;;;;;;6156480;23;20373;-61
2023/10/20 12:24:35;;;;;;;5.90;5.60;;;17.40;34.50;;;;;;6153901;23;20934;-62
2023/10/20 12:27:03;;;;;;;5.80;5.60;;;17.40;35.00;;;;;;6155252;23;20180;-62
2023/10/20 12:29:29;;;;;;;6.03;5.83;;;17.50;34.70;;;;;;6153681;23;20393;-62
2023/10/20 12:31:56;;;;;;;5.80;5.60;;;17.50;34.70;;;;;;6156082;23;20393;-61
2023/10/20 12:34:22;;;;;;;5.10;5.00;;;17.60;35.00;;;;;;6155457;23;20377;-63
2023/10/20 12:36:48;;;;;;;5.53;5.23;;;17.60;34.40;;;;;;6154319;23;20460;-61
2023/10/20 12:39:21;;;;;;;5.80;5.60;;;17.70;34.40;;;;;;6155547;23;20463;-61
2023/10/20 12:41:47;;;;;;;5.77;5.57;;;17.70;33.90;;;;;;6153752;23;20145;-61
2023/10/20 12:44:19;;;;;;;5.73;5.57;;;17.90;34.10;;;;;;6154711;23;20385;-61
2023/10/20 12:46:45;;;;;;;6.07;5.97;;;17.90;33.30;;;;;;6154047;23;20451;-61
2023/10/20 12:49:11;;;;;;;6.30;5.77;;;18.00;33.20;;;;;;6158370;23;20377;-61
2023/10/20 12:51:40;;;;;;;7.00;6.53;;;18.00;32.90;;;;;;6156398;23;20384;-61
2023/10/20 12:54:05;;;;;;;6.63;6.43;;;18.00;33.00;;;;;;6156239;23;20392;-62
2023/10/20 12:56:31;;;;;;;6.60;6.40;;;18.00;32.70;;;;;;6156098;23;20709;-61
2023/10/20 12:58:58;;;;;;;6.50;6.30;;;18.10;31.20;;;;;;6156024;23;20181;-59
2023/10/20 13:01:24;;;;;;;6.13;5.93;;;18.10;31.20;;;;;;6159151;23;20396;-59
2023/10/20 13:03:50;;;;;;;6.90;6.60;;;18.10;31.20;;;;;;6187982;23;20806;-60